FW8756 Weather Reports


Display with metric or nautical units.
time (UTC)temp
F
wind
direction
speed
MPH
gust
MPH
rain 1hr
in
rain 24hr
in
rain mn
in
humidity
%
barometer
mb
20210925204921 86 243 5.0 6.0 0.00 0.00 0.00 41 1017.5
20210925204420 87 244 4.0 5.0 0.00 0.00 0.00 41 1017.8
20210925203917 87 252 3.0 5.0 0.00 0.00 0.00 40 1017.8
20210925203415 87 256 5.0 5.0 0.00 0.00 0.00 40 1018.0
20210925202915 88 247 2.0 3.0 0.00 0.00 0.00 41 1017.9
20210925202414 88 252 2.0 2.0 0.00 0.00 0.00 42 1017.9
20210925201913 87 247 3.0 5.0 0.00 0.00 0.00 41 1017.9
20210925201412 86 247 2.0 3.0 0.00 0.00 0.00 44 1018.1
20210925200911 86 221 4.0 5.0 0.00 0.00 0.00 41 1018.1
20210925200409 86 253 4.0 5.0 0.00 0.00 0.00 41 1018.1
20210925195908 85 254 5.0 6.0 0.00 0.00 0.00 43 1018.3
20210925195408 85 246 4.0 6.0 0.00 0.00 0.00 44 1018.4
20210925194907 85 250 4.0 5.0 0.00 0.00 0.00 44 1018.4
20210925194406 85 241 5.0 6.0 0.00 0.00 0.00 44 1018.5
20210925193900 87 253 2.0 2.0 0.00 0.00 0.00 42 1018.7
20210925193359 86 248 4.0 5.0 0.00 0.00 0.00 42 1018.7
20210925192857 85 248 5.0 6.0 0.00 0.00 0.00 43 1018.9
20210925192354 84 233 3.0 3.0 0.00 0.00 0.00 46 1019.1
20210925191853 84 252 3.0 5.0 0.00 0.00 0.00 46 1018.9
20210925191352 85 242 2.0 2.0 0.00 0.00 0.00 46 1019.1
20210925190849 84 254 4.0 6.0 0.00 0.00 0.00 45 1019.2
20210925190347 83 257 4.0 5.0 0.00 0.00 0.00 46 1019.5
20210925185847 83 247 5.0 6.0 0.00 0.00 0.00 47 1019.4
20210925185346 84 262 4.0 5.0 0.00 0.00 0.00 47 1019.5
20210925184845 83 247 5.0 6.0 0.00 0.00 0.00 46 1019.5
20210925184344 83 265 4.0 6.0 0.00 0.00 0.00 49 1019.5
20210925183843 83 248 2.0 2.0 0.00 0.00 0.00 48 1019.9
20210925183342 82 275 4.0 6.0 0.00 0.00 0.00 47 1019.9
20210925182840 82 204 2.0 3.0 0.00 0.00 0.00 48 1020.0
20210925182338 81 239 3.0 5.0 0.00 0.00 0.00 51 1019.8
20210925181834 82 255 4.0 6.0 0.00 0.00 0.00 49 1020.1
20210925181334 81 250 4.0 6.0 0.00 0.00 0.00 49 1020.1
20210925180832 82 257 4.0 6.0 0.00 0.00 0.00 48 1020.1
20210925180331 82 252 3.0 3.0 0.00 0.00 0.00 49 1020.2
20210925175829 82 246 4.0 5.0 0.00 0.00 0.00 48 1020.2
20210925175329 81 249 1.0 2.0 0.00 0.00 0.00 51 1020.2
20210925174828 80 241 3.0 3.0 0.00 0.00 0.00 50 1020.4
20210925174327 80 244 2.0 5.0 0.00 0.00 0.00 49 1020.5
20210925173825 80 251 3.0 5.0 0.00 0.00 0.00 49 1020.3
20210925173325 80 255 2.0 2.0 0.00 0.00 0.00 50 1020.7
20210925172823 79 243 4.0 5.0 0.00 0.00 0.00 50 1020.8
20210925172322 79 258 2.0 3.0 0.00 0.00 0.00 50 1020.6
20210925171820 79 247 2.0 3.0 0.00 0.00 0.00 52 1020.6
20210925171320 78 203 3.0 3.0 0.00 0.00 0.00 51 1020.8
20210925170819 79 249 4.0 5.0 0.00 0.00 0.00 51 1020.7
20210925170317 79 246 3.0 3.0 0.00 0.00 0.00 49 1020.5
20210925165815 80 255 3.0 5.0 0.00 0.00 0.00 48 1021.0
20210925165255 78 251 3.0 5.0 0.00 0.00 0.00 50 1020.7
20210925164754 79 242 3.0 3.0 0.00 0.00 0.00 52 1020.9
20210925164255 78 251 2.0 3.0 0.00 0.00 0.00 54 1020.8
20210925163751 79 244 4.0 6.0 0.00 0.00 0.00 53 1021.1
20210925163248 78 250 3.0 3.0 0.00 0.00 0.00 53 1020.9
20210925162746 77 252 1.0 1.0 0.00 0.00 0.00 55 1021.2
20210925162244 78 266 3.0 3.0 0.00 0.00 0.00 53 1021.5
20210925161742 76 240 3.0 3.0 0.00 0.00 0.00 56 1021.0
20210925161228 77 243 3.0 3.0 0.00 0.00 0.00 55 1021.1
20210925160725 77 253 2.0 2.0 0.00 0.00 0.00 55 1021.3
20210925160225 78 242 1.0 2.0 0.00 0.00 0.00 54 1021.3
20210925155721 78 271 3.0 3.0 0.00 0.00 0.00 54 1021.3
20210925155218 77 211 0.0 1.0 0.00 0.00 0.00 54 1021.5
20210925154717 75 232 2.0 2.0 0.00 0.00 0.00 57 1021.2
20210925154216 75 272 2.0 3.0 0.00 0.00 0.00 58 1021.3
20210925153714 76 243 4.0 5.0 0.00 0.00 0.00 58 1021.2
20210925153213 76 248 2.0 3.0 0.00 0.00 0.00 58 1021.3
20210925152712 76 258 1.0 1.0 0.00 0.00 0.00 57 1021.4
20210925152211 75 270 1.0 1.0 0.00 0.00 0.00 58 1021.2
20210925151708 74 243 1.0 2.0 0.00 0.00 0.00 59 1021.3
20210925151205 73 242 2.0 2.0 0.00 0.00 0.00 61 1021.3
20210925150704 73 255 3.0 3.0 0.00 0.00 0.00 59 1021.1
20210925150203 73 247 1.0 2.0 0.00 0.00 0.00 61 1021.2
20210925145703 72 241 1.0 2.0 0.00 0.00 0.00 63 1021.0
20210925145201 72 69 0.0 0.0 0.00 0.00 0.00 66 1021.0
20210925144702 73 59 0.0 1.0 0.00 0.00 0.00 66 1021.0
20210925144159 72 258 0.0 0.0 0.00 0.00 0.00 70 1021.1
20210925143657 71 245 0.0 0.0 0.00 0.00 0.00 72 1021.1
20210925143156 71 248 1.0 2.0 0.00 0.00 0.00 70 1020.8
20210925142656 71 328 0.0 0.0 0.00 0.00 0.00 72 1020.9
20210925142154 71 301 0.0 0.0 0.00 0.00 0.00 72 1020.6
20210925141652 70 237 0.0 0.0 0.00 0.00 0.00 74 1020.8
20210925141152 71 36 0.0 1.0 0.00 0.00 0.00 73 1020.8
20210925140650 71 10 0.0 0.0 0.00 0.00 0.00 73 1020.6
20210925140149 70 354 0.0 0.0 0.00 0.00 0.00 75 1020.4
20210925135648 69 26 0.0 0.0 0.00 0.00 0.00 77 1020.3
20210925135147 68 348 0.0 0.0 0.00 0.00 0.00 79 1020.5
20210925134646 69 46 0.0 0.0 0.00 0.00 0.00 78 1020.5
20210925134146 68 43 0.0 0.0 0.00 0.00 0.00 80 1020.4
20210925133646 67 356 1.0 1.0 0.00 0.00 0.00 82 1020.5
20210925133144 67 348 0.0 0.0 0.00 0.00 0.00 85 1020.4
20210925132643 66 358 1.0 1.0 0.00 0.00 0.00 86 1020.5
20210925132136 65 346 0.0 0.0 0.00 0.00 0.00 87 1020.3
20210925131635 64 24 1.0 1.0 0.00 0.00 0.00 88 1020.4
20210925131135 63 13 1.0 1.0 0.00 0.00 0.00 89 1020.2
20210925130632 62 31 1.0 1.0 0.00 0.00 0.00 91 1020.3
20210925130130 62 13 0.0 1.0 0.00 0.00 0.00 91 1020.4
20210925125629 61 12 1.0 1.0 0.00 0.00 0.00 91 1020.1
20210925125126 61 0 0.0 0.0 0.00 0.00 0.00 91 1020.2
20210925124626 60 338 0.0 0.0 0.00 0.00 0.00 90 1020.0
20210925124125 60 344 0.0 1.0 0.00 0.00 0.00 90 1019.9
20210925123623 60 322 0.0 0.0 0.00 0.00 0.00 90 1020.0
20210925123123 60 323 0.0 0.0 0.00 0.00 0.00 91 1019.7
20210925122621 59 313 0.0 0.0 0.00 0.00 0.00 91 1019.7
20210925122121 59 313 0.0 0.0 0.00 0.00 0.00 91 1019.8
20210925121620 59 313 0.0 0.0 0.00 0.00 0.00 92 1019.7
20210925121118 59 313 0.0 0.0 0.00 0.00 0.00 93 1019.7
20210925120618 60 313 0.0 0.0 0.00 0.00 0.00 93 1019.5
20210925120117 60 313 0.0 0.0 0.00 0.00 0.00 92 1019.5
20210925115616 60 313 0.0 0.0 0.00 0.00 0.00 92 1019.4
20210925115115 60 313 0.0 0.0 0.00 0.00 0.00 91 1019.7
20210925114614 60 313 0.0 0.0 0.00 0.00 0.00 90 1019.6
20210925114113 60 312 0.0 0.0 0.00 0.00 0.00 90 1019.4
20210925113612 60 312 0.0 0.0 0.00 0.00 0.00 91 1019.4
20210925113111 60 312 0.0 0.0 0.00 0.00 0.00 91 1019.2
20210925112609 60 312 0.0 0.0 0.00 0.00 0.00 92 1019.0
20210925112109 61 312 0.0 0.0 0.00 0.00 0.00 92 1019.1
20210925111606 61 312 0.0 0.0 0.00 0.00 0.00 91 1019.0
20210925111104 62 312 0.0 0.0 0.00 0.00 0.00 91 1018.9
20210925110558 62 248 0.0 0.0 0.00 0.00 0.00 88 1018.6
20210925110058 63 248 0.0 0.0 0.00 0.00 0.00 86 1018.5
20210925105556 63 247 0.0 0.0 0.00 0.00 0.00 85 1018.7
20210925105053 64 248 0.0 0.0 0.00 0.00 0.00 83 1018.7
20210925104551 65 248 0.0 0.0 0.00 0.00 0.00 80 1018.8
20210925104049 64 200 0.0 0.0 0.00 0.00 0.00 81 1018.5
20210925103548 64 200 0.0 0.0 0.00 0.00 0.00 83 1018.4
20210925103046 65 200 0.0 0.0 0.00 0.00 0.00 81 1018.5
20210925102542 64 200 0.0 0.0 0.00 0.00 0.00 79 1018.5
20210925102041 63 200 0.0 0.0 0.00 0.00 0.00 85 1018.4
20210925101540 64 200 0.0 0.0 0.00 0.00 0.00 86 1018.4
20210925101040 64 200 0.0 0.0 0.00 0.00 0.00 83 1018.4
20210925100538 64 200 0.0 0.0 0.00 0.00 0.00 81 1018.5
20210925100037 63 200 0.0 0.0 0.00 0.00 0.00 84 1018.7
20210925095532 63 200 0.0 0.0 0.00 0.00 0.00 86 1018.6
20210925095031 63 200 0.0 0.0 0.00 0.00 0.00 85 1018.4
20210925094532 63 200 0.0 0.0 0.00 0.00 0.00 83 1018.4
20210925094030 63 200 0.0 0.0 0.00 0.00 0.00 82 1018.5
20210925093529 64 200 0.0 0.0 0.00 0.00 0.00 80 1018.3
20210925093028 64 200 0.0 0.0 0.00 0.00 0.00 79 1018.4
20210925092528 64 200 0.0 0.0 0.00 0.00 0.00 79 1018.4
20210925092024 64 200 0.0 0.0 0.00 0.00 0.00 79 1018.3
20210925091523 64 200 0.0 0.0 0.00 0.00 0.00 79 1018.4
20210925091021 65 200 0.0 0.0 0.00 0.00 0.00 79 1018.2
20210925090520 65 200 0.0 0.0 0.00 0.00 0.00 78 1018.5
20210925090018 65 200 0.0 1.0 0.00 0.00 0.00 78 1018.3
20210925085517 65 200 0.0 0.0 0.00 0.00 0.00 77 1018.5
20210925085014 64 200 1.0 1.0 0.00 0.00 0.00 78 1018.4
20210925084512 64 200 0.0 0.0 0.00 0.00 0.00 82 1018.4
20210925084012 64 200 0.0 0.0 0.00 0.00 0.00 81 1018.4
20210925083511 64 200 0.0 0.0 0.00 0.00 0.00 81 1018.4
20210925082959 64 200 0.0 0.0 0.00 0.00 0.00 81 1018.6
20210925082458 64 200 0.0 0.0 0.00 0.00 0.00 81 1018.4
20210925081955 65 200 0.0 0.0 0.00 0.00 0.00 79 1018.2
20210925081453 65 200 0.0 0.0 0.00 0.00 0.00 78 1018.6
20210925080951 65 200 0.0 0.0 0.00 0.00 0.00 77 1018.5
20210925080450 66 200 0.0 0.0 0.00 0.00 0.00 76 1018.6
20210925075949 66 200 0.0 0.0 0.00 0.00 0.00 75 1018.6
20210925075447 66 200 0.0 0.0 0.00 0.00 0.00 75 1018.6
20210925074945 66 200 0.0 0.0 0.00 0.00 0.00 74 1018.8
20210925074445 66 200 0.0 0.0 0.00 0.00 0.00 74 1018.6
20210925073944 67 200 0.0 0.0 0.00 0.00 0.00 73 1018.7
20210925073441 67 201 0.0 0.0 0.00 0.00 0.00 73 1018.7
20210925072940 67 200 0.0 0.0 0.00 0.00 0.00 73 1018.6
20210925072438 67 200 0.0 0.0 0.00 0.00 0.00 72 1018.5
20210925071938 68 191 0.0 0.0 0.00 0.00 0.00 72 1018.6
20210925071437 68 196 0.0 0.0 0.00 0.00 0.00 71 1018.4
20210925070934 68 196 1.0 1.0 0.00 0.00 0.00 71 1018.3
20210925070434 68 203 0.0 0.0 0.00 0.00 0.00 71 1018.4
20210925065923 68 205 0.0 0.0 0.00 0.00 0.00 71 1018.3
20210925065423 67 232 0.0 0.0 0.00 0.00 0.00 72 1018.4
20210925064921 67 217 0.0 0.0 0.00 0.00 0.00 73 1018.4
20210925064420 67 218 0.0 0.0 0.00 0.00 0.00 74 1018.4
20210925063920 68 218 0.0 0.0 0.00 0.00 0.00 72 1018.5
20210925063417 68 218 0.0 0.0 0.00 0.00 0.00 72 1018.4
20210925062915 68 226 1.0 1.0 0.00 0.00 0.00 72 1018.4
20210925062409 67 226 1.0 1.0 0.00 0.00 0.00 73 1018.4
20210925061907 67 181 0.0 0.0 0.00 0.00 0.00 74 1018.6
20210925061408 67 181 0.0 0.0 0.00 0.00 0.00 75 1018.6
20210925060907 67 181 0.0 0.0 0.00 0.00 0.00 75 1018.2
20210925060405 67 181 0.0 0.0 0.00 0.00 0.00 74 1018.2
20210925055903 68 181 0.0 0.0 0.00 0.00 0.00 73 1018.3
20210925055403 67 181 0.0 0.0 0.00 0.00 0.00 73 1018.1
20210925054901 67 191 0.0 1.0 0.00 0.00 0.00 74 1018.1
20210925054359 67 191 0.0 0.0 0.00 0.00 0.00 74 1018.2
20210925053858 67 191 0.0 0.0 0.00 0.00 0.00 74 1018.2
20210925053355 67 191 0.0 0.0 0.00 0.00 0.00 73 1018.0
20210925052854 68 191 0.0 0.0 0.00 0.00 0.00 72 1018.2
20210925052353 69 191 0.0 0.0 0.00 0.00 0.00 71 1018.2
20210925051852 69 191 0.0 0.0 0.00 0.00 0.00 71 1018.1
20210925051351 68 195 0.0 0.0 0.00 0.00 0.00 71 1018.2
20210925050849 69 196 0.0 0.0 0.00 0.00 0.00 71 1018.0
20210925050349 68 208 0.0 0.0 0.00 0.00 0.00 71 1017.9
20210925045848 69 212 0.0 0.0 0.00 0.00 0.00 70 1018.0
20210925045347 69 210 0.0 0.0 0.00 0.00 0.00 70 1017.9
20210925044846 69 160 0.0 0.0 0.00 0.00 0.00 69 1018.0
20210925044346 69 173 0.0 0.0 0.00 0.00 0.00 68 1017.9
20210925043845 69 130 0.0 0.0 0.00 0.00 0.00 69 1018.0
20210925043344 69 130 0.0 0.0 0.00 0.00 0.00 68 1017.8
20210925042843 70 129 1.0 1.0 0.00 0.00 0.00 67 1018.0
20210925042341 70 128 0.0 1.0 0.00 0.00 0.00 68 1017.8
20210925041839 70 125 2.0 2.0 0.00 0.00 0.00 67 1017.9
20210925041337 70 123 0.0 0.0 0.00 0.00 0.00 68 1018.0
20210925040835 70 123 0.0 1.0 0.00 0.00 0.00 67 1018.0
20210925040335 70 123 0.0 0.0 0.00 0.00 0.00 67 1018.0
20210925035834 70 123 0.0 1.0 0.00 0.00 0.00 67 1018.1
20210925035320 70 123 0.0 1.0 0.00 0.00 0.00 66 1018.2
20210925034819 70 123 0.0 0.0 0.00 0.00 0.00 66 1018.2
20210925034318 70 123 1.0 1.0 0.00 0.00 0.00 66 1018.1
20210925033812 71 122 0.0 0.0 0.00 0.00 0.00 65 1018.2
20210925033312 71 121 0.0 0.0 0.00 0.00 0.00 64 1018.1
20210925032810 71 121 0.0 1.0 0.00 0.00 0.00 65 1018.1
20210925032309 71 121 0.0 1.0 0.00 0.00 0.00 64 1017.7
20210925031805 71 120 0.0 0.0 0.00 0.00 0.00 64 1017.8
20210925031305 70 120 0.0 0.0 0.00 0.00 0.00 64 1017.7
20210925030802 71 118 0.0 0.0 0.00 0.00 0.00 63 1017.9
20210925030301 71 117 0.0 0.0 0.00 0.00 0.00 62 1017.8
20210925025759 71 117 0.0 0.0 0.00 0.00 0.00 61 1017.7
20210925025257 71 117 0.0 0.0 0.00 0.00 0.00 61 1017.4
20210925024757 70 88 0.0 0.0 0.00 0.00 0.00 63 1017.5
20210925024254 69 83 0.0 0.0 0.00 0.00 0.00 65 1017.4
20210925023753 69 83 0.0 0.0 0.00 0.00 0.00 67 1017.3
20210925023245 69 83 0.0 0.0 0.00 0.00 0.00 67 1017.3
20210925022744 70 82 0.0 1.0 0.00 0.00 0.00 65 1017.2
20210925022244 70 94 0.0 0.0 0.00 0.00 0.00 64 1017.2
20210925021742 71 96 0.0 0.0 0.00 0.00 0.00 62 1017.2
20210925021242 71 100 0.0 0.0 0.00 0.00 0.00 60 1017.2
20210925020740 72 106 0.0 0.0 0.00 0.00 0.00 58 1017.4
20210925020240 72 108 0.0 0.0 0.00 0.00 0.00 57 1017.1
20210925015736 71 105 0.0 0.0 0.00 0.00 0.00 59 1017.2
20210925015236 72 104 0.0 0.0 0.00 0.00 0.00 57 1017.0
20210925014733 73 104 0.0 0.0 0.00 0.00 0.00 56 1017.0
20210925014233 73 104 0.0 0.0 0.00 0.00 0.00 54 1016.9
20210925013730 73 104 0.0 0.0 0.00 0.00 0.00 54 1016.8
20210925013228 73 105 0.0 1.0 0.00 0.00 0.00 54 1017.0
20210925012725 72 100 0.0 0.0 0.00 0.00 0.00 55 1016.7
20210925012224 72 88 0.0 0.0 0.00 0.00 0.00 58 1016.8
20210925011723 72 88 0.0 0.0 0.00 0.00 0.00 57 1016.9
20210925011223 73 88 0.0 0.0 0.00 0.00 0.00 55 1016.7
20210925010723 74 88 0.0 0.0 0.00 0.00 0.00 55 1017.0
20210925010220 74 89 0.0 0.0 0.00 0.00 0.00 52 1016.8
20210925005719 74 88 0.0 0.0 0.00 0.00 0.00 53 1016.7
20210925005213 74 81 0.0 0.0 0.00 0.00 0.00 54 1016.6
20210925004713 75 81 0.0 0.0 0.00 0.00 0.00 53 1016.8
20210925004213 75 82 0.0 0.0 0.00 0.00 0.00 52 1016.7
20210925003709 75 80 0.0 0.0 0.00 0.00 0.00 50 1016.5
20210925003209 76 198 0.0 0.0 0.00 0.00 0.00 49 1016.8
20210925002708 77 198 0.0 0.0 0.00 0.00 0.00 47 1016.9
20210925002206 77 198 0.0 0.0 0.00 0.00 0.00 46 1016.7
20210925001705 78 198 0.0 0.0 0.00 0.00 0.00 45 1016.8
20210925001203 78 198 0.0 0.0 0.00 0.00 0.00 44 1016.7
20210925000702 79 198 0.0 0.0 0.00 0.00 0.00 43 1016.9
20210925000203 80 199 0.0 0.0 0.00 0.00 0.00 42 1016.7
20210924235701 80 199 0.0 0.0 0.00 0.00 0.00 41 1016.9
20210924235159 81 179 0.0 0.0 0.00 0.00 0.00 41 1016.9
20210924234657 81 205 0.0 0.0 0.00 0.00 0.00 39 1016.7
20210924234156 82 250 0.0 1.0 0.00 0.00 0.00 39 1016.7
20210924233655 83 197 0.0 0.0 0.00 0.00 0.00 38 1016.7
20210924233151 82 234 0.0 1.0 0.00 0.00 0.00 39 1016.8
20210924232650 83 207 0.0 0.0 0.00 0.00 0.00 39 1016.8
20210924232149 83 222 0.0 0.0 0.00 0.00 0.00 38 1016.8
20210924231648 83 170 1.0 1.0 0.00 0.00 0.00 36 1016.8
20210924231148 83 223 0.0 0.0 0.00 0.00 0.00 37 1016.9
20210924230645 83 229 1.0 1.0 0.00 0.00 0.00 37 1016.6
20210924230145 84 211 0.0 1.0 0.00 0.00 0.00 38 1016.5
20210924225645 85 237 1.0 2.0 0.00 0.00 0.00 36 1016.8
20210924225143 85 218 0.0 1.0 0.00 0.00 0.00 36 1017.0
20210924224642 84 236 0.0 1.0 0.00 0.00 0.00 37 1016.9
20210924224139 86 205 2.0 3.0 0.00 0.00 0.00 35 1016.9
20210924223638 85 187 1.0 1.0 0.00 0.00 0.00 36 1016.8
20210924223136 86 219 2.0 3.0 0.00 0.00 0.00 35 1016.9
20210924222635 85 258 0.0 0.0 0.00 0.00 0.00 36 1017.0
20210924222133 86 231 0.0 1.0 0.00 0.00 0.00 36 1017.0
20210924221632 85 211 0.0 1.0 0.00 0.00 0.00 35 1017.0
20210924221130 86 296 0.0 1.0 0.00 0.00 0.00 34 1016.8
20210924220629 86 257 2.0 2.0 0.00 0.00 0.00 32 1016.9
20210924220127 86 254 0.0 1.0 0.00 0.00 0.00 35 1016.7
20210924215626 86 279 0.0 0.0 0.00 0.00 0.00 36 1016.8
20210924215125 84 283 0.0 0.0 0.00 0.00 0.00 36 1016.7
20210924214620 84 88 1.0 1.0 0.00 0.00 0.00 35 1016.5
20210924214116 84 75 1.0 2.0 0.00 0.00 0.00 33 1016.8
20210924213616 86 277 0.0 0.0 0.00 0.00 0.00 32 1016.7
20210924213114 87 247 0.0 0.0 0.00 0.00 0.00 31 1016.9
20210924212613 86 208 1.0 1.0 0.00 0.00 0.00 33 1016.8
20210924212111 87 73 1.0 1.0 0.00 0.00 0.00 31 1016.9
20210924211610 88 252 0.0 0.0 0.00 0.00 0.00 31 1016.6
20210924211109 88 264 1.0 1.0 0.00 0.00 0.00 32 1016.9
20210924210609 88 261 1.0 1.0 0.00 0.00 0.00 33 1016.9
20210924210109 88 254 0.0 0.0 0.00 0.00 0.00 31 1016.9
20210924205607 87 225 2.0 2.0 0.00 0.00 0.00 28 1017.1
20210924205105 87 225 0.0 0.0 0.00 0.00 0.00 32 1017.1